sensor_id;sensor_type;location;lat;lon;timestamp;P1;durP1;ratioP1;P2;durP2;ratioP2
40170;SDS011;37650;52.790;18.268;2023-08-07T00:00:03;5.90;;;4.50;;
40170;SDS011;37650;52.790;18.268;2023-08-07T00:03:45;4.70;;;3.80;;
40170;SDS011;37650;52.790;18.268;2023-08-07T00:07:07;6.80;;;2.70;;
40170;SDS011;37650;52.790;18.268;2023-08-07T00:10:28;4.00;;;2.30;;
40170;SDS011;37650;52.790;18.268;2023-08-07T00:13:50;4.10;;;1.80;;
40170;SDS011;37650;52.790;18.268;2023-08-07T00:17:11;3.60;;;2.20;;
40170;SDS011;37650;52.790;18.268;2023-08-07T00:20:33;3.90;;;1.70;;
40170;SDS011;37650;52.790;18.268;2023-08-07T00:23:54;3.90;;;1.70;;
40170;SDS011;37650;52.790;18.268;2023-08-07T00:27:15;2.90;;;1.80;;
40170;SDS011;37650;52.790;18.268;2023-08-07T00:30:36;4.20;;;2.30;;
40170;SDS011;37650;52.790;18.268;2023-08-07T00:33:57;7.50;;;3.90;;
40170;SDS011;37650;52.790;18.268;2023-08-07T00:37:18;9.00;;;4.10;;
40170;SDS011;37650;52.790;18.268;2023-08-07T00:40:40;5.20;;;2.90;;
40170;SDS011;37650;52.790;18.268;2023-08-07T00:44:02;5.80;;;2.70;;
40170;SDS011;37650;52.790;18.268;2023-08-07T00:47:23;4.90;;;2.60;;
40170;SDS011;37650;52.790;18.268;2023-08-07T00:50:46;5.90;;;3.40;;
40170;SDS011;37650;52.790;18.268;2023-08-07T00:54:09;4.90;;;2.90;;
40170;SDS011;37650;52.790;18.268;2023-08-07T00:57:32;3.20;;;1.50;;
40170;SDS011;37650;52.790;18.268;2023-08-07T01:00:54;3.00;;;1.90;;
40170;SDS011;37650;52.790;18.268;2023-08-07T01:04:15;2.90;;;1.60;;
40170;SDS011;37650;52.790;18.268;2023-08-07T01:07:36;4.10;;;2.00;;
40170;SDS011;37650;52.790;18.268;2023-08-07T01:11:17;3.00;;;1.70;;
40170;SDS011;37650;52.790;18.268;2023-08-07T01:18:10;6.40;;;2.50;;
40170;SDS011;37650;52.790;18.268;2023-08-07T01:21:32;4.50;;;2.30;;
40170;SDS011;37650;52.790;18.268;2023-08-07T01:24:54;2.50;;;1.70;;
40170;SDS011;37650;52.790;18.268;2023-08-07T01:31:46;2.70;;;1.30;;
40170;SDS011;37650;52.790;18.268;2023-08-07T01:35:11;3.80;;;1.70;;
40170;SDS011;37650;52.790;18.268;2023-08-07T01:38:33;1.90;;;1.10;;
40170;SDS011;37650;52.790;18.268;2023-08-07T01:41:55;3.80;;;1.50;;
40170;SDS011;37650;52.790;18.268;2023-08-07T01:45:24;2.60;;;1.50;;
40170;SDS011;37650;52.790;18.268;2023-08-07T01:48:46;2.50;;;1.60;;
40170;SDS011;37650;52.790;18.268;2023-08-07T01:52:07;4.10;;;1.50;;
40170;SDS011;37650;52.790;18.268;2023-08-07T01:55:29;2.30;;;1.20;;
40170;SDS011;37650;52.790;18.268;2023-08-07T01:58:50;2.10;;;1.30;;
40170;SDS011;37650;52.790;18.268;2023-08-07T02:02:11;3.50;;;2.10;;
40170;SDS011;37650;52.790;18.268;2023-08-07T02:05:32;3.60;;;2.10;;
40170;SDS011;37650;52.790;18.268;2023-08-07T02:08:53;6.40;;;2.40;;
40170;SDS011;37650;52.790;18.268;2023-08-07T02:12:15;4.40;;;2.50;;
40170;SDS011;37650;52.790;18.268;2023-08-07T02:15:36;6.40;;;3.00;;
40170;SDS011;37650;52.790;18.268;2023-08-07T02:19:00;4.50;;;3.10;;
40170;SDS011;37650;52.790;18.268;2023-08-07T02:22:22;6.70;;;3.60;;
40170;SDS011;37650;52.790;18.268;2023-08-07T02:25:43;8.20;;;5.40;;
40170;SDS011;37650;52.790;18.268;2023-08-07T02:29:06;8.30;;;5.30;;
40170;SDS011;37650;52.790;18.268;2023-08-07T02:32:29;6.70;;;5.40;;
40170;SDS011;37650;52.790;18.268;2023-08-07T02:35:51;7.40;;;4.70;;
40170;SDS011;37650;52.790;18.268;2023-08-07T02:39:13;6.20;;;4.20;;
40170;SDS011;37650;52.790;18.268;2023-08-07T02:42:34;4.60;;;2.80;;
40170;SDS011;37650;52.790;18.268;2023-08-07T02:45:55;3.90;;;2.90;;
40170;SDS011;37650;52.790;18.268;2023-08-07T02:49:17;4.30;;;2.40;;
40170;SDS011;37650;52.790;18.268;2023-08-07T02:52:41;4.60;;;2.50;;
40170;SDS011;37650;52.790;18.268;2023-08-07T02:56:02;4.80;;;2.00;;
40170;SDS011;37650;52.790;18.268;2023-08-07T02:59:23;3.80;;;2.10;;
40170;SDS011;37650;52.790;18.268;2023-08-07T03:02:44;3.60;;;2.20;;
40170;SDS011;37650;52.790;18.268;2023-08-07T03:06:06;3.90;;;1.90;;
40170;SDS011;37650;52.790;18.268;2023-08-07T03:09:27;4.80;;;2.10;;
40170;SDS011;37650;52.790;18.268;2023-08-07T03:12:49;2.90;;;1.80;;
40170;SDS011;37650;52.790;18.268;2023-08-07T03:16:10;6.60;;;3.00;;
40170;SDS011;37650;52.790;18.268;2023-08-07T03:19:32;6.00;;;2.70;;
40170;SDS011;37650;52.790;18.268;2023-08-07T03:22:53;7.50;;;4.50;;
40170;SDS011;37650;52.790;18.268;2023-08-07T03:26:14;7.90;;;5.10;;
40170;SDS011;37650;52.790;18.268;2023-08-07T03:29:35;6.40;;;3.90;;
40170;SDS011;37650;52.790;18.268;2023-08-07T03:32:57;6.10;;;2.90;;
40170;SDS011;37650;52.790;18.268;2023-08-07T03:39:40;3.50;;;1.90;;
40170;SDS011;37650;52.790;18.268;2023-08-07T03:43:01;4.10;;;2.30;;
40170;SDS011;37650;52.790;18.268;2023-08-07T03:46:23;5.60;;;2.50;;
40170;SDS011;37650;52.790;18.268;2023-08-07T03:49:45;4.00;;;2.50;;
40170;SDS011;37650;52.790;18.268;2023-08-07T03:53:08;7.10;;;2.90;;
40170;SDS011;37650;52.790;18.268;2023-08-07T03:56:32;7.50;;;2.90;;
40170;SDS011;37650;52.790;18.268;2023-08-07T03:59:57;3.20;;;2.00;;
40170;SDS011;37650;52.790;18.268;2023-08-07T04:03:22;5.10;;;2.70;;
40170;SDS011;37650;52.790;18.268;2023-08-07T04:06:45;6.30;;;2.30;;
40170;SDS011;37650;52.790;18.268;2023-08-07T04:10:07;5.90;;;2.70;;
40170;SDS011;37650;52.790;18.268;2023-08-07T04:13:29;3.40;;;1.90;;
40170;SDS011;37650;52.790;18.268;2023-08-07T04:16:51;6.40;;;2.60;;
40170;SDS011;37650;52.790;18.268;2023-08-07T04:20:12;7.10;;;2.70;;
40170;SDS011;37650;52.790;18.268;2023-08-07T04:23:33;5.00;;;2.50;;
40170;SDS011;37650;52.790;18.268;2023-08-07T04:26:55;7.50;;;3.40;;
40170;SDS011;37650;52.790;18.268;2023-08-07T04:30:16;6.00;;;3.30;;
40170;SDS011;37650;52.790;18.268;2023-08-07T04:33:37;7.50;;;4.40;;
40170;SDS011;37650;52.790;18.268;2023-08-07T04:36:59;9.80;;;5.40;;
40170;SDS011;37650;52.790;18.268;2023-08-07T04:40:21;9.40;;;5.80;;
40170;SDS011;37650;52.790;18.268;2023-08-07T04:43:42;9.20;;;5.90;;
40170;SDS011;37650;52.790;18.268;2023-08-07T04:47:04;10.50;;;5.90;;
40170;SDS011;37650;52.790;18.268;2023-08-07T04:50:26;7.80;;;5.60;;
40170;SDS011;37650;52.790;18.268;2023-08-07T04:53:47;11.80;;;5.90;;
40170;SDS011;37650;52.790;18.268;2023-08-07T04:57:11;8.00;;;5.40;;
40170;SDS011;37650;52.790;18.268;2023-08-07T05:00:33;11.50;;;7.50;;
40170;SDS011;37650;52.790;18.268;2023-08-07T05:03:54;9.20;;;5.60;;
40170;SDS011;37650;52.790;18.268;2023-08-07T05:07:15;8.50;;;5.70;;
40170;SDS011;37650;52.790;18.268;2023-08-07T05:10:37;7.60;;;4.10;;
40170;SDS011;37650;52.790;18.268;2023-08-07T05:13:58;5.70;;;3.70;;
40170;SDS011;37650;52.790;18.268;2023-08-07T05:17:23;5.60;;;2.90;;
40170;SDS011;37650;52.790;18.268;2023-08-07T05:20:44;7.10;;;3.20;;
40170;SDS011;37650;52.790;18.268;2023-08-07T05:24:05;6.30;;;2.70;;
40170;SDS011;37650;52.790;18.268;2023-08-07T05:27:27;3.70;;;2.50;;
40170;SDS011;37650;52.790;18.268;2023-08-07T05:30:48;5.30;;;2.40;;
40170;SDS011;37650;52.790;18.268;2023-08-07T05:34:10;3.70;;;1.90;;
40170;SDS011;37650;52.790;18.268;2023-08-07T05:37:31;4.40;;;2.40;;
40170;SDS011;37650;52.790;18.268;2023-08-07T05:40:52;4.00;;;2.40;;
40170;SDS011;37650;52.790;18.268;2023-08-07T05:44:14;4.20;;;2.00;;
40170;SDS011;37650;52.790;18.268;2023-08-07T05:47:35;4.40;;;1.80;;
40170;SDS011;37650;52.790;18.268;2023-08-07T05:50:57;4.30;;;2.50;;
40170;SDS011;37650;52.790;18.268;2023-08-07T05:54:18;4.50;;;2.20;;
40170;SDS011;37650;52.790;18.268;2023-08-07T05:57:40;7.00;;;3.10;;
40170;SDS011;37650;52.790;18.268;2023-08-07T06:01:01;6.70;;;4.00;;
40170;SDS011;37650;52.790;18.268;2023-08-07T06:04:22;10.30;;;4.20;;
40170;SDS011;37650;52.790;18.268;2023-08-07T06:07:44;6.40;;;4.40;;
40170;SDS011;37650;52.790;18.268;2023-08-07T06:11:05;6.40;;;3.10;;
40170;SDS011;37650;52.790;18.268;2023-08-07T06:14:28;6.40;;;3.10;;
40170;SDS011;37650;52.790;18.268;2023-08-07T06:21:12;6.10;;;2.80;;
40170;SDS011;37650;52.790;18.268;2023-08-07T06:24:34;7.90;;;3.40;;
40170;SDS011;37650;52.790;18.268;2023-08-07T06:27:55;8.70;;;3.80;;
40170;SDS011;37650;52.790;18.268;2023-08-07T06:31:17;6.30;;;3.00;;
40170;SDS011;37650;52.790;18.268;2023-08-07T06:34:38;8.10;;;3.60;;
40170;SDS011;37650;52.790;18.268;2023-08-07T06:38:00;10.60;;;4.00;;
40170;SDS011;37650;52.790;18.268;2023-08-07T06:41:21;7.50;;;3.90;;
40170;SDS011;37650;52.790;18.268;2023-08-07T06:44:42;22.80;;;4.50;;
40170;SDS011;37650;52.790;18.268;2023-08-07T06:48:03;6.30;;;3.20;;
40170;SDS011;37650;52.790;18.268;2023-08-07T06:51:25;4.20;;;2.00;;
40170;SDS011;37650;52.790;18.268;2023-08-07T06:54:46;3.50;;;1.60;;
40170;SDS011;37650;52.790;18.268;2023-08-07T06:58:07;4.00;;;1.50;;
40170;SDS011;37650;52.790;18.268;2023-08-07T07:01:29;3.00;;;1.50;;
40170;SDS011;37650;52.790;18.268;2023-08-07T07:04:50;5.80;;;1.80;;
40170;SDS011;37650;52.790;18.268;2023-08-07T07:08:11;7.70;;;1.90;;
40170;SDS011;37650;52.790;18.268;2023-08-07T07:11:32;5.20;;;1.70;;
40170;SDS011;37650;52.790;18.268;2023-08-07T07:14:55;3.10;;;1.50;;
40170;SDS011;37650;52.790;18.268;2023-08-07T07:18:17;2.90;;;1.40;;
40170;SDS011;37650;52.790;18.268;2023-08-07T07:21:38;6.30;;;2.10;;
40170;SDS011;37650;52.790;18.268;2023-08-07T07:24:59;7.00;;;1.60;;
40170;SDS011;37650;52.790;18.268;2023-08-07T07:28:21;2.70;;;1.30;;
40170;SDS011;37650;52.790;18.268;2023-08-07T07:31:42;4.20;;;1.50;;
40170;SDS011;37650;52.790;18.268;2023-08-07T07:35:03;3.40;;;1.70;;
40170;SDS011;37650;52.790;18.268;2023-08-07T07:38:25;3.40;;;1.70;;
40170;SDS011;37650;52.790;18.268;2023-08-07T07:41:46;3.70;;;1.30;;
40170;SDS011;37650;52.790;18.268;2023-08-07T07:45:08;3.10;;;1.60;;
40170;SDS011;37650;52.790;18.268;2023-08-07T07:48:29;6.70;;;1.60;;
40170;SDS011;37650;52.790;18.268;2023-08-07T07:51:50;3.10;;;1.70;;
40170;SDS011;37650;52.790;18.268;2023-08-07T07:55:11;4.40;;;1.70;;
40170;SDS011;37650;52.790;18.268;2023-08-07T07:58:34;4.30;;;1.50;;
40170;SDS011;37650;52.790;18.268;2023-08-07T08:01:55;7.00;;;1.70;;
40170;SDS011;37650;52.790;18.268;2023-08-07T08:05:16;3.20;;;1.70;;
40170;SDS011;37650;52.790;18.268;2023-08-07T08:08:38;4.10;;;2.10;;
40170;SDS011;37650;52.790;18.268;2023-08-07T08:12:00;4.00;;;1.60;;
40170;SDS011;37650;52.790;18.268;2023-08-07T08:15:21;3.50;;;1.40;;
40170;SDS011;37650;52.790;18.268;2023-08-07T08:18:43;2.80;;;1.60;;
40170;SDS011;37650;52.790;18.268;2023-08-07T08:22:04;2.50;;;1.30;;
40170;SDS011;37650;52.790;18.268;2023-08-07T08:25:26;5.60;;;1.30;;
40170;SDS011;37650;52.790;18.268;2023-08-07T08:28:47;4.20;;;1.50;;
40170;SDS011;37650;52.790;18.268;2023-08-07T08:32:08;5.50;;;1.50;;
40170;SDS011;37650;52.790;18.268;2023-08-07T08:35:30;6.00;;;1.40;;
40170;SDS011;37650;52.790;18.268;2023-08-07T08:38:51;3.30;;;1.40;;
40170;SDS011;37650;52.790;18.268;2023-08-07T08:42:13;3.50;;;1.50;;
40170;SDS011;37650;52.790;18.268;2023-08-07T08:45:36;3.00;;;1.40;;
40170;SDS011;37650;52.790;18.268;2023-08-07T08:48:58;3.30;;;1.40;;
40170;SDS011;37650;52.790;18.268;2023-08-07T08:52:22;7.70;;;1.70;;
40170;SDS011;37650;52.790;18.268;2023-08-07T08:55:44;4.50;;;2.00;;
40170;SDS011;37650;52.790;18.268;2023-08-07T08:59:07;6.40;;;1.70;;
40170;SDS011;37650;52.790;18.268;2023-08-07T09:02:29;2.70;;;1.20;;
40170;SDS011;37650;52.790;18.268;2023-08-07T09:05:58;5.80;;;1.50;;
40170;SDS011;37650;52.790;18.268;2023-08-07T09:09:20;2.80;;;1.50;;
40170;SDS011;37650;52.790;18.268;2023-08-07T09:13:04;2.20;;;1.20;;
40170;SDS011;37650;52.790;18.268;2023-08-07T09:16:30;4.10;;;1.30;;
40170;SDS011;37650;52.790;18.268;2023-08-07T09:19:52;2.70;;;1.10;;
40170;SDS011;37650;52.790;18.268;2023-08-07T09:23:15;3.90;;;1.10;;
40170;SDS011;37650;52.790;18.268;2023-08-07T09:26:38;4.40;;;1.80;;
40170;SDS011;37650;52.790;18.268;2023-08-07T09:30:05;3.10;;;1.30;;
40170;SDS011;37650;52.790;18.268;2023-08-07T09:33:30;4.10;;;1.70;;
40170;SDS011;37650;52.790;18.268;2023-08-07T09:36:51;4.50;;;1.70;;
40170;SDS011;37650;52.790;18.268;2023-08-07T09:40:13;4.50;;;1.70;;
40170;SDS011;37650;52.790;18.268;2023-08-07T09:43:36;4.40;;;1.80;;
40170;SDS011;37650;52.790;18.268;2023-08-07T09:46:57;5.90;;;4.80;;
40170;SDS011;37650;52.790;18.268;2023-08-07T09:50:20;5.90;;;2.70;;
40170;SDS011;37650;52.790;18.268;2023-08-07T09:53:43;5.20;;;2.80;;
40170;SDS011;37650;52.790;18.268;2023-08-07T09:57:04;6.40;;;3.20;;
40170;SDS011;37650;52.790;18.268;2023-08-07T10:00:26;6.00;;;3.50;;
40170;SDS011;37650;52.790;18.268;2023-08-07T10:03:48;8.10;;;4.00;;
40170;SDS011;37650;52.790;18.268;2023-08-07T10:07:10;5.00;;;3.00;;
40170;SDS011;37650;52.790;18.268;2023-08-07T10:10:32;5.80;;;2.90;;
40170;SDS011;37650;52.790;18.268;2023-08-07T10:13:57;5.70;;;3.20;;
40170;SDS011;37650;52.790;18.268;2023-08-07T10:17:18;4.40;;;2.20;;
40170;SDS011;37650;52.790;18.268;2023-08-07T10:20:43;5.40;;;2.30;;
40170;SDS011;37650;52.790;18.268;2023-08-07T10:24:06;4.50;;;2.00;;
40170;SDS011;37650;52.790;18.268;2023-08-07T10:27:32;5.60;;;2.70;;
40170;SDS011;37650;52.790;18.268;2023-08-07T10:30:56;4.60;;;2.00;;
40170;SDS011;37650;52.790;18.268;2023-08-07T10:34:19;4.90;;;1.90;;
40170;SDS011;37650;52.790;18.268;2023-08-07T10:37:43;5.70;;;2.00;;
40170;SDS011;37650;52.790;18.268;2023-08-07T10:41:09;6.40;;;1.80;;
40170;SDS011;37650;52.790;18.268;2023-08-07T10:44:30;7.10;;;2.40;;
40170;SDS011;37650;52.790;18.268;2023-08-07T10:48:07;5.00;;;2.40;;
40170;SDS011;37650;52.790;18.268;2023-08-07T10:51:31;3.30;;;1.90;;
40170;SDS011;37650;52.790;18.268;2023-08-07T10:54:54;4.50;;;1.90;;
40170;SDS011;37650;52.790;18.268;2023-08-07T10:58:22;4.30;;;2.10;;
40170;SDS011;37650;52.790;18.268;2023-08-07T11:01:48;3.80;;;1.80;;
40170;SDS011;37650;52.790;18.268;2023-08-07T11:05:12;4.50;;;2.10;;
40170;SDS011;37650;52.790;18.268;2023-08-07T11:08:33;5.30;;;2.20;;
40170;SDS011;37650;52.790;18.268;2023-08-07T11:11:55;5.90;;;2.00;;
40170;SDS011;37650;52.790;18.268;2023-08-07T11:15:17;3.80;;;2.60;;
40170;SDS011;37650;52.790;18.268;2023-08-07T11:18:38;5.10;;;2.70;;
40170;SDS011;37650;52.790;18.268;2023-08-07T11:22:02;7.50;;;3.70;;
40170;SDS011;37650;52.790;18.268;2023-08-07T11:25:23;7.50;;;5.00;;
40170;SDS011;37650;52.790;18.268;2023-08-07T11:28:47;7.70;;;4.60;;
40170;SDS011;37650;52.790;18.268;2023-08-07T11:32:09;9.80;;;6.10;;
40170;SDS011;37650;52.790;18.268;2023-08-07T11:35:30;13.70;;;6.80;;
40170;SDS011;37650;52.790;18.268;2023-08-07T11:38:52;11.80;;;5.40;;
40170;SDS011;37650;52.790;18.268;2023-08-07T11:42:13;9.00;;;5.30;;
40170;SDS011;37650;52.790;18.268;2023-08-07T11:45:34;6.60;;;4.50;;
40170;SDS011;37650;52.790;18.268;2023-08-07T11:48:56;8.90;;;4.50;;
40170;SDS011;37650;52.790;18.268;2023-08-07T11:52:17;8.30;;;4.70;;
40170;SDS011;37650;52.790;18.268;2023-08-07T11:55:46;6.60;;;4.00;;
40170;SDS011;37650;52.790;18.268;2023-08-07T11:59:08;7.80;;;2.80;;
40170;SDS011;37650;52.790;18.268;2023-08-07T12:02:29;4.40;;;1.90;;
40170;SDS011;37650;52.790;18.268;2023-08-07T12:05:50;4.20;;;1.90;;
40170;SDS011;37650;52.790;18.268;2023-08-07T12:09:12;13.20;;;2.00;;
40170;SDS011;37650;52.790;18.268;2023-08-07T12:15:56;3.70;;;1.70;;
40170;SDS011;37650;52.790;18.268;2023-08-07T12:19:18;2.90;;;1.70;;
40170;SDS011;37650;52.790;18.268;2023-08-07T12:22:39;3.80;;;1.60;;
40170;SDS011;37650;52.790;18.268;2023-08-07T12:26:01;4.70;;;1.70;;
40170;SDS011;37650;52.790;18.268;2023-08-07T12:29:24;2.80;;;1.50;;
40170;SDS011;37650;52.790;18.268;2023-08-07T12:32:49;4.40;;;1.50;;
40170;SDS011;37650;52.790;18.268;2023-08-07T12:36:10;3.30;;;1.50;;
40170;SDS011;37650;52.790;18.268;2023-08-07T12:39:34;4.70;;;1.40;;
40170;SDS011;37650;52.790;18.268;2023-08-07T12:42:55;4.40;;;1.80;;
40170;SDS011;37650;52.790;18.268;2023-08-07T12:46:17;3.00;;;1.60;;
40170;SDS011;37650;52.790;18.268;2023-08-07T12:49:38;4.80;;;1.70;;
40170;SDS011;37650;52.790;18.268;2023-08-07T12:52:58;3.40;;;1.60;;
40170;SDS011;37650;52.790;18.268;2023-08-07T12:56:20;5.40;;;1.70;;
40170;SDS011;37650;52.790;18.268;2023-08-07T12:59:41;4.00;;;1.60;;
40170;SDS011;37650;52.790;18.268;2023-08-07T13:03:03;4.60;;;1.50;;
40170;SDS011;37650;52.790;18.268;2023-08-07T13:06:24;4.00;;;1.80;;
40170;SDS011;37650;52.790;18.268;2023-08-07T13:09:45;3.60;;;1.70;;
40170;SDS011;37650;52.790;18.268;2023-08-07T13:13:06;3.70;;;1.40;;
40170;SDS011;37650;52.790;18.268;2023-08-07T13:16:28;3.80;;;1.70;;
40170;SDS011;37650;52.790;18.268;2023-08-07T13:19:49;3.50;;;1.80;;
40170;SDS011;37650;52.790;18.268;2023-08-07T13:23:11;3.30;;;1.90;;
40170;SDS011;37650;52.790;18.268;2023-08-07T13:29:53;6.10;;;2.10;;
40170;SDS011;37650;52.790;18.268;2023-08-07T13:33:14;3.40;;;1.80;;
40170;SDS011;37650;52.790;18.268;2023-08-07T13:36:36;8.00;;;1.60;;
40170;SDS011;37650;52.790;18.268;2023-08-07T13:39:59;2.70;;;1.60;;
40170;SDS011;37650;52.790;18.268;2023-08-07T13:43:20;3.10;;;1.70;;
40170;SDS011;37650;52.790;18.268;2023-08-07T13:46:41;3.60;;;1.60;;
40170;SDS011;37650;52.790;18.268;2023-08-07T13:50:05;6.60;;;1.70;;
40170;SDS011;37650;52.790;18.268;2023-08-07T13:53:28;5.70;;;1.90;;
40170;SDS011;37650;52.790;18.268;2023-08-07T13:56:50;6.20;;;1.90;;
40170;SDS011;37650;52.790;18.268;2023-08-07T14:00:12;4.90;;;1.90;;
40170;SDS011;37650;52.790;18.268;2023-08-07T14:03:35;2.50;;;1.40;;
40170;SDS011;37650;52.790;18.268;2023-08-07T14:06:57;4.30;;;1.90;;
40170;SDS011;37650;52.790;18.268;2023-08-07T14:10:19;5.60;;;1.80;;
40170;SDS011;37650;52.790;18.268;2023-08-07T14:13:41;3.60;;;1.60;;
40170;SDS011;37650;52.790;18.268;2023-08-07T14:17:03;3.20;;;1.70;;
40170;SDS011;37650;52.790;18.268;2023-08-07T14:20:25;2.20;;;1.30;;
40170;SDS011;37650;52.790;18.268;2023-08-07T14:23:46;5.20;;;1.90;;
40170;SDS011;37650;52.790;18.268;2023-08-07T14:30:30;5.20;;;2.10;;
40170;SDS011;37650;52.790;18.268;2023-08-07T14:33:50;4.60;;;2.20;;
40170;SDS011;37650;52.790;18.268;2023-08-07T14:37:12;4.20;;;1.70;;
40170;SDS011;37650;52.790;18.268;2023-08-07T14:40:33;3.50;;;1.70;;
40170;SDS011;37650;52.790;18.268;2023-08-07T14:43:54;3.00;;;1.40;;
40170;SDS011;37650;52.790;18.268;2023-08-07T14:47:15;5.40;;;2.10;;
40170;SDS011;37650;52.790;18.268;2023-08-07T14:50:37;5.00;;;1.80;;
40170;SDS011;37650;52.790;18.268;2023-08-07T14:53:59;4.90;;;1.30;;
40170;SDS011;37650;52.790;18.268;2023-08-07T14:57:20;4.10;;;1.60;;
40170;SDS011;37650;52.790;18.268;2023-08-07T15:00:42;4.80;;;1.70;;
40170;SDS011;37650;52.790;18.268;2023-08-07T15:04:03;4.20;;;1.50;;
40170;SDS011;37650;52.790;18.268;2023-08-07T15:07:24;3.60;;;1.40;;
40170;SDS011;37650;52.790;18.268;2023-08-07T15:10:46;4.40;;;1.70;;
40170;SDS011;37650;52.790;18.268;2023-08-07T15:14:07;3.90;;;1.70;;
40170;SDS011;37650;52.790;18.268;2023-08-07T15:17:28;3.80;;;2.10;;
40170;SDS011;37650;52.790;18.268;2023-08-07T15:20:49;4.00;;;1.80;;
40170;SDS011;37650;52.790;18.268;2023-08-07T15:24:10;2.80;;;1.40;;
40170;SDS011;37650;52.790;18.268;2023-08-07T15:27:32;5.70;;;1.40;;
40170;SDS011;37650;52.790;18.268;2023-08-07T15:30:54;7.30;;;1.60;;
40170;SDS011;37650;52.790;18.268;2023-08-07T15:34:15;4.20;;;1.50;;
40170;SDS011;37650;52.790;18.268;2023-08-07T15:37:37;5.70;;;1.70;;
40170;SDS011;37650;52.790;18.268;2023-08-07T15:40:58;4.00;;;1.90;;
40170;SDS011;37650;52.790;18.268;2023-08-07T15:44:19;7.20;;;2.80;;
40170;SDS011;37650;52.790;18.268;2023-08-07T15:47:41;5.60;;;2.20;;
40170;SDS011;37650;52.790;18.268;2023-08-07T15:51:02;5.30;;;2.40;;
40170;SDS011;37650;52.790;18.268;2023-08-07T15:54:24;7.20;;;2.20;;
40170;SDS011;37650;52.790;18.268;2023-08-07T15:57:46;4.40;;;2.20;;
40170;SDS011;37650;52.790;18.268;2023-08-07T16:01:07;4.20;;;1.90;;
40170;SDS011;37650;52.790;18.268;2023-08-07T16:04:28;4.60;;;1.70;;
40170;SDS011;37650;52.790;18.268;2023-08-07T16:07:49;4.70;;;2.20;;
40170;SDS011;37650;52.790;18.268;2023-08-07T16:11:11;6.00;;;2.80;;
40170;SDS011;37650;52.790;18.268;2023-08-07T16:14:32;3.50;;;1.60;;
40170;SDS011;37650;52.790;18.268;2023-08-07T16:17:54;5.70;;;1.90;;
40170;SDS011;37650;52.790;18.268;2023-08-07T16:21:15;7.10;;;2.30;;
40170;SDS011;37650;52.790;18.268;2023-08-07T16:24:36;6.10;;;2.80;;
40170;SDS011;37650;52.790;18.268;2023-08-07T16:27:59;7.60;;;2.70;;
40170;SDS011;37650;52.790;18.268;2023-08-07T16:31:20;5.20;;;2.50;;
40170;SDS011;37650;52.790;18.268;2023-08-07T16:34:42;6.00;;;2.70;;
40170;SDS011;37650;52.790;18.268;2023-08-07T16:38:03;7.30;;;3.00;;
40170;SDS011;37650;52.790;18.268;2023-08-07T16:41:25;6.90;;;2.70;;
40170;SDS011;37650;52.790;18.268;2023-08-07T16:44:46;7.50;;;3.70;;
40170;SDS011;37650;52.790;18.268;2023-08-07T16:48:09;5.50;;;3.10;;
40170;SDS011;37650;52.790;18.268;2023-08-07T16:51:30;6.70;;;2.60;;
40170;SDS011;37650;52.790;18.268;2023-08-07T16:54:53;6.70;;;2.40;;
40170;SDS011;37650;52.790;18.268;2023-08-07T16:58:15;5.50;;;2.20;;
40170;SDS011;37650;52.790;18.268;2023-08-07T17:01:37;6.70;;;3.20;;
40170;SDS011;37650;52.790;18.268;2023-08-07T17:04:59;5.10;;;3.40;;
40170;SDS011;37650;52.790;18.268;2023-08-07T17:08:21;5.10;;;2.30;;
40170;SDS011;37650;52.790;18.268;2023-08-07T17:15:05;4.70;;;1.70;;
40170;SDS011;37650;52.790;18.268;2023-08-07T17:18:27;5.60;;;2.00;;
40170;SDS011;37650;52.790;18.268;2023-08-07T17:21:49;7.00;;;2.60;;
40170;SDS011;37650;52.790;18.268;2023-08-07T17:25:10;7.10;;;2.10;;
40170;SDS011;37650;52.790;18.268;2023-08-07T17:28:32;7.10;;;1.90;;
40170;SDS011;37650;52.790;18.268;2023-08-07T17:31:54;3.60;;;2.20;;
40170;SDS011;37650;52.790;18.268;2023-08-07T17:35:18;4.60;;;2.10;;
40170;SDS011;37650;52.790;18.268;2023-08-07T17:38:40;4.90;;;2.10;;
40170;SDS011;37650;52.790;18.268;2023-08-07T17:42:01;6.20;;;2.40;;
40170;SDS011;37650;52.790;18.268;2023-08-07T17:45:23;5.20;;;2.10;;
40170;SDS011;37650;52.790;18.268;2023-08-07T17:48:46;6.30;;;2.00;;
40170;SDS011;37650;52.790;18.268;2023-08-07T17:52:08;8.40;;;2.80;;
40170;SDS011;37650;52.790;18.268;2023-08-07T17:55:30;8.80;;;2.30;;
40170;SDS011;37650;52.790;18.268;2023-08-07T18:05:36;4.50;;;2.10;;
40170;SDS011;37650;52.790;18.268;2023-08-07T18:08:59;8.20;;;2.60;;
40170;SDS011;37650;52.790;18.268;2023-08-07T18:12:21;6.40;;;2.10;;
40170;SDS011;37650;52.790;18.268;2023-08-07T18:15:43;6.70;;;2.10;;
40170;SDS011;37650;52.790;18.268;2023-08-07T18:19:06;12.80;;;2.70;;
40170;SDS011;37650;52.790;18.268;2023-08-07T18:22:30;9.00;;;2.60;;
40170;SDS011;37650;52.790;18.268;2023-08-07T18:25:51;6.60;;;2.60;;
40170;SDS011;37650;52.790;18.268;2023-08-07T18:29:13;5.40;;;2.10;;
40170;SDS011;37650;52.790;18.268;2023-08-07T18:32:36;4.40;;;2.40;;
40170;SDS011;37650;52.790;18.268;2023-08-07T18:35:59;6.80;;;2.40;;
40170;SDS011;37650;52.790;18.268;2023-08-07T18:39:21;4.80;;;2.20;;
40170;SDS011;37650;52.790;18.268;2023-08-07T18:42:45;7.90;;;2.80;;
40170;SDS011;37650;52.790;18.268;2023-08-07T18:46:06;5.30;;;2.10;;
40170;SDS011;37650;52.790;18.268;2023-08-07T18:49:28;5.30;;;2.10;;
40170;SDS011;37650;52.790;18.268;2023-08-07T18:52:53;6.00;;;2.20;;
40170;SDS011;37650;52.790;18.268;2023-08-07T18:56:15;6.90;;;2.80;;
40170;SDS011;37650;52.790;18.268;2023-08-07T18:59:37;10.10;;;3.00;;
40170;SDS011;37650;52.790;18.268;2023-08-07T19:02:58;5.10;;;2.40;;
40170;SDS011;37650;52.790;18.268;2023-08-07T19:06:20;6.00;;;2.40;;
40170;SDS011;37650;52.790;18.268;2023-08-07T19:09:44;6.90;;;2.40;;
40170;SDS011;37650;52.790;18.268;2023-08-07T19:13:11;5.30;;;2.30;;
40170;SDS011;37650;52.790;18.268;2023-08-07T19:16:33;4.50;;;2.00;;
40170;SDS011;37650;52.790;18.268;2023-08-07T19:19:55;3.50;;;1.70;;
40170;SDS011;37650;52.790;18.268;2023-08-07T19:23:17;9.50;;;3.20;;
40170;SDS011;37650;52.790;18.268;2023-08-07T19:26:39;6.30;;;2.80;;
40170;SDS011;37650;52.790;18.268;2023-08-07T19:30:01;6.90;;;2.90;;
40170;SDS011;37650;52.790;18.268;2023-08-07T19:33:22;7.00;;;2.50;;
40170;SDS011;37650;52.790;18.268;2023-08-07T19:36:46;10.50;;;3.50;;
40170;SDS011;37650;52.790;18.268;2023-08-07T19:40:10;9.50;;;3.10;;
40170;SDS011;37650;52.790;18.268;2023-08-07T19:43:32;8.90;;;2.80;;
40170;SDS011;37650;52.790;18.268;2023-08-07T19:46:53;7.90;;;2.70;;
40170;SDS011;37650;52.790;18.268;2023-08-07T19:50:17;5.70;;;2.60;;
40170;SDS011;37650;52.790;18.268;2023-08-07T19:53:40;7.20;;;3.10;;
40170;SDS011;37650;52.790;18.268;2023-08-07T19:57:02;10.10;;;2.70;;
40170;SDS011;37650;52.790;18.268;2023-08-07T20:00:25;5.90;;;2.70;;
40170;SDS011;37650;52.790;18.268;2023-08-07T20:03:47;9.40;;;3.10;;
40170;SDS011;37650;52.790;18.268;2023-08-07T20:10:31;5.90;;;2.30;;
40170;SDS011;37650;52.790;18.268;2023-08-07T20:13:54;5.70;;;2.30;;
40170;SDS011;37650;52.790;18.268;2023-08-07T20:17:16;9.00;;;3.00;;
40170;SDS011;37650;52.790;18.268;2023-08-07T20:20:40;6.10;;;2.70;;
40170;SDS011;37650;52.790;18.268;2023-08-07T20:24:02;6.60;;;2.70;;
40170;SDS011;37650;52.790;18.268;2023-08-07T20:27:24;7.90;;;2.60;;
40170;SDS011;37650;52.790;18.268;2023-08-07T20:30:45;7.40;;;2.80;;
40170;SDS011;37650;52.790;18.268;2023-08-07T20:34:07;6.10;;;2.50;;